Time,TemperatureF,DewpointF,PressureIn,WindDirection,WindDirectionDegrees,WindSpeedMPH,WindSpeedGustMPH,Humidity,HourlyPrecipIn,Conditions,Clouds,dailyrainin,SoftwareType,DateUTC
2013-05-06 00:04:00,48.7,41.7,30.02,SW,231,3.1,4.0,76,0.00,,---,0.00,VWS V14.01,2013-05-06 07:04:00,
2013-05-06 00:09:00,48.7,41.7,30.02,SW,227,0.0,0.0,76,0.00,,---,0.00,VWS V14.01,2013-05-06 07:09:00,
2013-05-06 00:14:00,48.7,41.7,30.02,SW,229,0.0,0.0,76,0.00,,---,0.00,VWS V14.01,2013-05-06 07:14:00,
2013-05-06 00:20:00,48.6,41.5,30.02,West,259,0.0,0.0,76,0.00,,---,0.00,VWS V14.01,2013-05-06 07:20:00,
2013-05-06 00:26:00,48.6,41.0,30.02,SSW,198,0.0,0.0,75,0.00,,---,0.00,VWS V14.01,2013-05-06 07:26:00,
2013-05-06 00:32:00,48.7,41.2,30.02,SW,218,2.2,2.2,75,0.00,,---,0.00,VWS V14.01,2013-05-06 07:32:00,
2013-05-06 00:37:00,48.7,41.2,30.02,WNW,295,3.1,3.6,75,0.00,,---,0.00,VWS V14.01,2013-05-06 07:37:00,
2013-05-06 00:43:00,48.7,41.2,30.02,NW,314,0.0,0.0,75,0.00,,---,0.00,VWS V14.01,2013-05-06 07:43:00,
2013-05-06 00:48:00,48.7,40.7,30.02,West,263,4.0,4.0,74,0.00,,---,0.00,VWS V14.01,2013-05-06 07:48:00,
2013-05-06 00:55:00,48.7,40.7,30.02,NW,307,3.6,5.8,74,0.00,,---,0.00,VWS V14.01,2013-05-06 07:55:00,
2013-05-06 01:00:00,48.6,40.0,30.02,NW,319,7.6,8.1,72,0.00,,---,0.00,VWS V14.01,2013-05-06 08:00:00,
2013-05-06 01:05:00,48.4,40.3,30.02,NW,324,8.1,8.1,74,0.00,,---,0.00,VWS V14.01,2013-05-06 08:05:00,
2013-05-06 01:11:00,48.2,40.1,29.99,NNW,332,3.1,4.0,74,0.00,,---,0.00,VWS V14.01,2013-05-06 08:11:00,
2013-05-06 01:17:00,48.2,40.1,29.99,West,277,5.4,7.2,74,0.00,,---,0.00,VWS V14.01,2013-05-06 08:17:00,
2013-05-06 01:22:00,48.2,40.1,29.99,NNW,339,5.8,7.2,74,0.00,,---,0.00,VWS V14.01,2013-05-06 08:22:00,
2013-05-06 01:28:00,48.2,40.7,29.99,NW,326,6.7,6.7,75,0.00,,---,0.00,VWS V14.01,2013-05-06 08:28:00,
2013-05-06 01:35:00,48.2,40.7,29.99,WNW,288,2.7,2.7,75,0.00,,---,0.00,VWS V14.01,2013-05-06 08:35:00,
2013-05-06 01:41:00,48.2,40.7,29.99,West,279,3.1,4.9,75,0.00,,---,0.00,VWS V14.01,2013-05-06 08:41:00,
2013-05-06 01:47:00,48.4,40.8,29.99,NW,307,3.6,3.6,75,0.00,,---,0.00,VWS V14.01,2013-05-06 08:47:00,
2013-05-06 01:53:00,48.2,40.7,29.99,WNW,302,3.6,3.6,75,0.00,,---,0.00,VWS V14.01,2013-05-06 08:53:00,
2013-05-06 01:59:00,48.2,40.7,29.99,WNW,297,3.1,4.9,75,0.00,,---,0.00,VWS V14.01,2013-05-06 08:59:00,
2013-05-06 02:04:00,48.0,41.0,29.99,NW,314,3.6,4.5,76,0.00,,---,0.00,VWS V14.01,2013-05-06 09:04:00,
2013-05-06 02:10:00,48.2,41.2,29.99,NW,319,4.0,4.0,76,0.00,,---,0.00,VWS V14.01,2013-05-06 09:10:00,
2013-05-06 02:15:00,48.0,41.0,29.99,West,281,2.7,3.6,76,0.00,,---,0.00,VWS V14.01,2013-05-06 09:15:00,
2013-05-06 02:21:00,48.2,41.2,29.99,NW,326,4.0,4.0,76,0.00,,---,0.00,VWS V14.01,2013-05-06 09:21:00,
2013-05-06 02:26:00,48.0,41.5,29.99,NW,308,5.4,6.3,78,0.00,,---,0.00,VWS V14.01,2013-05-06 09:26:00,
2013-05-06 02:32:00,48.0,41.5,29.99,WSW,248,5.8,5.8,78,0.00,,---,0.00,VWS V14.01,2013-05-06 09:32:00,
2013-05-06 02:37:00,48.0,41.5,29.99,WSW,251,0.0,0.0,78,0.00,,---,0.00,VWS V14.01,2013-05-06 09:37:00,
2013-05-06 02:43:00,48.2,41.7,29.99,SW,231,0.0,0.0,78,0.00,,---,0.00,VWS V14.01,2013-05-06 09:43:00,
2013-05-06 02:49:00,48.2,41.7,29.99,SW,233,0.0,0.0,78,0.00,,---,0.00,VWS V14.01,2013-05-06 09:49:00,
2013-05-06 02:54:00,48.4,41.8,29.99,SSW,202,2.2,3.6,78,0.00,,---,0.00,VWS V14.01,2013-05-06 09:54:00,
2013-05-06 03:00:00,48.4,41.8,29.99,SSW,210,0.0,0.0,78,0.00,,---,0.00,VWS V14.01,2013-05-06 10:00:00,
2013-05-06 03:05:00,48.6,42.0,29.99,SW,229,0.0,0.0,78,0.00,,---,0.00,VWS V14.01,2013-05-06 10:05:00,
2013-05-06 03:11:00,48.6,42.0,29.99,SW,228,2.7,4.0,78,0.00,,---,0.00,VWS V14.01,2013-05-06 10:11:00,
2013-05-06 03:17:00,48.6,42.0,29.99,West,259,0.0,2.2,78,0.00,,---,0.00,VWS V14.01,2013-05-06 10:17:00,
2013-05-06 03:22:00,48.6,42.0,29.99,West,266,0.0,2.2,78,0.00,,---,0.00,VWS V14.01,2013-05-06 10:22:00,
2013-05-06 03:27:00,48.4,41.8,29.99,NW,318,2.2,4.5,78,0.00,,---,0.00,VWS V14.01,2013-05-06 10:27:00,
2013-05-06 03:33:00,48.4,41.3,29.99,WNW,303,4.0,5.4,76,0.00,,---,0.00,VWS V14.01,2013-05-06 10:33:00,
2013-05-06 03:38:00,48.4,41.3,29.99,NW,322,3.6,4.5,76,0.00,,---,0.00,VWS V14.01,2013-05-06 10:38:00,
2013-05-06 03:44:00,48.6,41.5,29.99,NW,307,3.6,4.0,76,0.00,,---,0.00,VWS V14.01,2013-05-06 10:44:00,
2013-05-06 03:49:00,48.6,41.5,29.99,NW,316,4.9,5.4,76,0.00,,---,0.00,VWS V14.01,2013-05-06 10:49:00,
2013-05-06 03:55:00,48.6,41.5,29.99,NW,317,4.0,5.8,76,0.00,,---,0.00,VWS V14.01,2013-05-06 10:55:00,
2013-05-06 04:01:00,48.6,41.0,29.99,WNW,301,0.0,3.6,75,0.00,,---,0.00,VWS V14.01,2013-05-06 11:01:00,
2013-05-06 04:07:00,48.7,41.2,29.99,SW,233,2.2,2.7,75,0.00,,---,0.00,VWS V14.01,2013-05-06 11:07:00,
2013-05-06 04:13:00,48.7,41.2,29.99,West,267,2.7,4.0,75,0.00,,---,0.00,VWS V14.01,2013-05-06 11:13:00,
2013-05-06 04:18:00,48.7,41.2,29.99,West,266,2.7,3.1,75,0.00,,---,0.00,VWS V14.01,2013-05-06 11:18:00,
2013-05-06 04:23:00,48.6,41.0,29.99,NW,311,3.6,5.4,75,0.00,,---,0.00,VWS V14.01,2013-05-06 11:23:00,
2013-05-06 04:29:00,48.7,41.2,29.99,WNW,302,0.0,3.1,75,0.00,,---,0.00,VWS V14.01,2013-05-06 11:29:00,
2013-05-06 04:35:00,48.7,41.2,29.99,NW,307,0.0,0.0,75,0.00,,---,0.00,VWS V14.01,2013-05-06 11:35:00,
2013-05-06 04:41:00,48.7,41.2,29.99,WNW,300,0.0,3.1,75,0.00,,---,0.00,VWS V14.01,2013-05-06 11:41:00,
2013-05-06 04:46:00,48.7,41.2,29.99,WNW,299,3.6,4.9,75,0.00,,---,0.00,VWS V14.01,2013-05-06 11:46:00,
2013-05-06 04:51:00,48.9,41.4,29.99,West,260,4.0,4.0,75,0.00,,---,0.00,VWS V14.01,2013-05-06 11:51:00,
2013-05-06 04:57:00,48.9,41.4,29.99,SW,226,0.0,0.0,75,0.00,,---,0.00,VWS V14.01,2013-05-06 11:57:00,
2013-05-06 05:04:00,49.1,41.5,29.99,SW,216,0.0,0.0,75,0.00,,---,0.00,VWS V14.01,2013-05-06 12:04:00,
2013-05-06 05:09:00,49.1,41.0,29.99,West,267,4.0,4.0,74,0.00,,---,0.00,VWS V14.01,2013-05-06 12:09:00,
2013-05-06 05:14:00,49.1,41.0,29.99,WNW,294,3.1,3.1,74,0.00,,---,0.00,VWS V14.01,2013-05-06 12:14:00,
2013-05-06 05:20:00,49.1,41.0,29.99,NNW,337,0.0,0.0,74,0.00,,---,0.00,VWS V14.01,2013-05-06 12:20:00,
2013-05-06 05:25:00,49.1,41.0,29.99,NNW,337,0.0,0.0,74,0.00,,---,0.00,VWS V14.01,2013-05-06 12:25:00,
2013-05-06 05:31:00,49.3,41.2,29.99,NNW,337,0.0,0.0,74,0.00,,---,0.00,VWS V14.01,2013-05-06 12:31:00,
2013-05-06 05:36:00,49.3,41.2,29.99,NE,37,3.1,3.1,74,0.00,,---,0.00,VWS V14.01,2013-05-06 12:36:00,
2013-05-06 05:42:00,49.3,41.2,29.99,South,187,0.0,0.0,74,0.00,,---,0.00,VWS V14.01,2013-05-06 12:42:00,
2013-05-06 05:47:00,49.3,41.2,29.99,SSW,213,0.0,0.0,74,0.00,,---,0.00,VWS V14.01,2013-05-06 12:47:00,
2013-05-06 05:53:00,49.5,41.3,29.99,West,278,2.2,3.1,74,0.00,,---,0.00,VWS V14.01,2013-05-06 12:53:00,
2013-05-06 05:58:00,49.3,41.2,29.99,WSW,241,0.0,2.7,74,0.00,,---,0.00,VWS V14.01,2013-05-06 12:58:00,
2013-05-06 06:03:00,49.3,41.2,29.99,SW,236,0.0,0.0,74,0.00,,---,0.00,VWS V14.01,2013-05-06 13:03:00,
2013-05-06 06:09:00,49.3,41.2,29.99,West,277,0.0,0.0,74,0.00,,---,0.00,VWS V14.01,2013-05-06 13:09:00,
2013-05-06 06:14:00,49.5,41.3,29.99,SW,235,0.0,0.0,74,0.00,,---,0.00,VWS V14.01,2013-05-06 13:14:00,
2013-05-06 06:19:00,49.6,41.5,29.99,SW,235,0.0,0.0,74,0.00,,---,0.00,VWS V14.01,2013-05-06 13:19:00,
2013-05-06 06:24:00,49.5,41.3,29.99,WSW,247,4.0,6.3,74,0.00,,---,0.00,VWS V14.01,2013-05-06 13:24:00,
2013-05-06 06:30:00,49.5,41.3,29.99,WSW,255,3.6,4.5,74,0.00,,---,0.00,VWS V14.01,2013-05-06 13:30:00,
2013-05-06 06:35:00,49.5,41.3,29.99,West,259,4.9,5.4,74,0.00,,---,0.00,VWS V14.01,2013-05-06 13:35:00,
2013-05-06 06:40:00,49.5,41.3,30.02,West,264,5.8,6.3,74,0.00,,---,0.00,VWS V14.01,2013-05-06 13:40:00,
2013-05-06 06:45:00,49.5,41.3,30.02,WSW,253,5.4,5.8,74,0.00,,---,0.00,VWS V14.01,2013-05-06 13:45:00,
2013-05-06 06:51:00,49.6,41.5,30.02,WSW,253,7.2,7.2,74,0.00,,---,0.00,VWS V14.01,2013-05-06 13:51:00,
2013-05-06 06:57:00,49.5,41.9,30.02,West,265,11.9,13.6,75,0.00,,---,0.00,VWS V14.01,2013-05-06 13:57:00,
2013-05-06 07:02:00,48.7,41.2,30.02,WSW,241,8.7,11.0,75,0.00,,---,0.00,VWS V14.01,2013-05-06 14:02:00,
2013-05-06 07:08:00,48.6,41.0,30.02,West,264,7.6,9.6,75,0.00,,---,0.00,VWS V14.01,2013-05-06 14:08:00,
2013-05-06 07:13:00,48.2,41.2,30.02,WSW,255,11.0,12.8,76,0.00,,---,0.00,VWS V14.01,2013-05-06 14:13:00,
2013-05-06 07:19:00,48.2,41.7,30.02,WSW,256,6.3,6.3,78,0.00,,---,0.00,VWS V14.01,2013-05-06 14:19:00,
2013-05-06 07:25:00,48.0,42.0,30.02,WSW,256,5.8,8.3,80,0.00,,---,0.00,VWS V14.01,2013-05-06 14:25:00,
2013-05-06 07:31:00,48.4,42.8,30.02,West,268,12.8,12.8,81,0.00,,---,0.00,VWS V14.01,2013-05-06 14:31:00,
2013-05-06 07:36:00,48.4,43.3,30.02,West,278,7.6,10.5,82,0.00,,---,0.00,VWS V14.01,2013-05-06 14:36:00,
2013-05-06 07:42:00,48.4,43.3,30.05,WSW,251,8.7,11.0,82,0.00,,---,0.00,VWS V14.01,2013-05-06 14:42:00,
2013-05-06 07:47:00,48.6,44.0,30.05,WNW,298,3.6,6.3,84,0.00,,---,0.00,VWS V14.01,2013-05-06 14:47:00,
2013-05-06 07:53:00,48.9,44.3,30.05,WNW,301,5.8,8.7,84,0.00,,---,0.00,VWS V14.01,2013-05-06 14:53:00,
2013-05-06 07:58:00,49.5,44.8,30.05,WNW,294,4.0,4.9,84,0.00,,---,0.00,VWS V14.01,2013-05-06 14:58:00,
2013-05-06 08:04:00,50.0,43.9,30.05,NW,316,5.8,5.8,80,0.00,,---,0.00,VWS V14.01,2013-05-06 15:04:00,
2013-05-06 08:09:00,51.3,44.6,30.05,WSW,256,4.0,5.8,78,0.00,,---,0.00,VWS V14.01,2013-05-06 15:09:00,
2013-05-06 08:15:00,53.1,45.9,30.05,WSW,247,3.6,3.6,76,0.00,,---,0.00,VWS V14.01,2013-05-06 15:15:00,
2013-05-06 08:20:00,52.3,44.7,30.05,SW,235,6.3,6.3,75,0.00,,---,0.00,VWS V14.01,2013-05-06 15:20:00,
2013-05-06 08:25:00,53.2,44.5,30.05,WSW,237,10.1,10.1,72,0.00,,---,0.00,VWS V14.01,2013-05-06 15:25:00,
2013-05-06 08:30:00,53.6,43.7,30.05,West,265,6.3,11.0,69,0.00,,---,0.00,VWS V14.01,2013-05-06 15:30:00,
2013-05-06 08:36:00,53.8,43.3,30.05,West,266,8.1,8.7,68,0.00,,---,0.00,VWS V14.01,2013-05-06 15:36:00,
2013-05-06 08:41:00,53.8,42.1,30.05,WNW,302,5.8,8.7,64,0.00,,---,0.00,VWS V14.01,2013-05-06 15:41:00,
2013-05-06 08:46:00,53.8,41.5,30.05,NW,315,8.3,8.3,63,0.00,,---,0.00,VWS V14.01,2013-05-06 15:46:00,
2013-05-06 08:51:00,53.8,40.9,30.05,WNW,301,3.1,6.3,62,0.00,,---,0.00,VWS V14.01,2013-05-06 15:51:00,
2013-05-06 08:58:00,55.0,41.4,30.05,NE,50,0.0,2.2,60,0.00,,---,0.00,VWS V14.01,2013-05-06 15:58:00,
2013-05-06 09:03:00,56.1,41.1,30.05,WSW,254,3.1,4.0,57,0.00,,---,0.00,VWS V14.01,2013-05-06 16:03:00,
2013-05-06 09:09:00,55.9,40.3,30.05,NW,304,5.8,5.8,56,0.00,,---,0.00,VWS V14.01,2013-05-06 16:09:00,
2013-05-06 09:15:00,55.2,39.6,30.05,West,279,3.1,3.6,56,0.00,,---,0.00,VWS V14.01,2013-05-06 16:15:00,
2013-05-06 09:20:00,55.2,39.6,30.05,WNW,303,5.8,5.8,56,0.00,,---,0.00,VWS V14.01,2013-05-06 16:20:00,
2013-05-06 09:26:00,54.9,39.2,30.05,West,262,8.3,8.3,56,0.00,,---,0.00,VWS V14.01,2013-05-06 16:26:00,
2013-05-06 09:31:00,54.5,38.9,30.05,West,266,8.3,8.7,56,0.00,,---,0.00,VWS V14.01,2013-05-06 16:31:00,
2013-05-06 09:37:00,54.1,38.6,30.05,WSW,249,6.7,8.1,56,0.00,,---,0.00,VWS V14.01,2013-05-06 16:37:00,
2013-05-06 09:42:00,54.0,38.4,30.05,West,261,7.6,8.3,56,0.00,,---,0.00,VWS V14.01,2013-05-06 16:42:00,
2013-05-06 09:48:00,54.0,38.4,30.05,West,271,5.8,8.3,56,0.00,,---,0.00,VWS V14.01,2013-05-06 16:48:00,
2013-05-06 09:53:00,53.8,38.2,30.05,West,260,4.0,5.8,56,0.00,,---,0.00,VWS V14.01,2013-05-06 16:53:00,
2013-05-06 09:59:00,53.8,38.9,30.05,West,270,6.3,6.3,57,0.00,,---,0.00,VWS V14.01,2013-05-06 16:59:00,
2013-05-06 10:04:00,54.5,39.6,30.05,West,265,5.4,7.6,57,0.00,,---,0.00,VWS V14.01,2013-05-06 17:04:00,
2013-05-06 10:09:00,54.3,39.4,30.05,NW,308,5.8,6.7,57,0.00,,---,0.00,VWS V14.01,2013-05-06 17:09:00,
2013-05-06 10:15:00,54.3,39.4,30.05,WNW,303,5.4,5.4,57,0.00,,---,0.00,VWS V14.01,2013-05-06 17:15:00,
2013-05-06 10:21:00,55.0,40.1,30.05,West,266,5.4,8.1,57,0.00,,---,0.00,VWS V14.01,2013-05-06 17:21:00,
2013-05-06 10:26:00,54.7,39.8,30.05,WNW,286,4.9,6.7,57,0.00,,---,0.00,VWS V14.01,2013-05-06 17:26:00,
2013-05-06 10:32:00,54.1,39.3,30.05,West,270,8.1,10.1,57,0.00,,---,0.00,VWS V14.01,2013-05-06 17:32:00,
2013-05-06 10:37:00,53.6,38.8,30.05,WSW,250,7.6,10.5,57,0.00,,---,0.00,VWS V14.01,2013-05-06 17:37:00,
2013-05-06 10:42:00,53.2,39.1,30.05,West,271,6.3,9.2,58,0.00,,---,0.00,VWS V14.01,2013-05-06 17:42:00,
2013-05-06 10:47:00,53.4,40.5,30.05,WSW,253,8.1,11.0,62,0.00,,---,0.00,VWS V14.01,2013-05-06 17:47:00,
2013-05-06 10:52:00,53.6,41.3,30.05,SW,228,10.1,10.5,63,0.00,,---,0.00,VWS V14.01,2013-05-06 17:52:00,
2013-05-06 10:57:00,54.3,42.6,30.08,SW,229,6.7,9.2,64,0.00,,---,0.00,VWS V14.01,2013-05-06 17:57:00,
2013-05-06 11:03:00,55.0,43.3,30.08,SW,224,8.1,8.7,64,0.00,,---,0.00,VWS V14.01,2013-05-06 18:03:00,
2013-05-06 11:08:00,55.4,42.4,30.08,West,268,8.7,10.5,62,0.00,,---,0.00,VWS V14.01,2013-05-06 18:08:00,
2013-05-06 11:14:00,55.2,42.2,30.08,WSW,254,5.8,8.1,62,0.00,,---,0.00,VWS V14.01,2013-05-06 18:14:00,
2013-05-06 11:20:00,54.5,40.9,30.08,West,271,7.6,7.6,60,0.00,,---,0.00,VWS V14.01,2013-05-06 18:20:00,
2013-05-06 11:26:00,54.7,41.7,30.08,SW,227,8.1,11.0,62,0.00,,---,0.00,VWS V14.01,2013-05-06 18:26:00,
2013-05-06 11:32:00,54.9,41.2,30.08,WSW,239,8.1,10.5,60,0.00,,---,0.00,VWS V14.01,2013-05-06 18:32:00,
2013-05-06 11:37:00,55.0,40.8,30.08,SW,224,5.4,5.4,58,0.00,,---,0.00,VWS V14.01,2013-05-06 18:37:00,
2013-05-06 11:43:00,56.3,42.0,30.08,SSW,204,6.3,7.2,58,0.00,,---,0.00,VWS V14.01,2013-05-06 18:43:00,
2013-05-06 11:49:00,57.4,42.3,30.08,WSW,258,7.6,9.2,57,0.00,,---,0.00,VWS V14.01,2013-05-06 18:49:00,
2013-05-06 11:55:00,58.8,42.9,30.05,South,189,8.3,8.7,56,0.00,,---,0.00,VWS V14.01,2013-05-06 18:55:00,
2013-05-06 12:00:00,58.3,41.7,30.05,WSW,245,10.1,10.5,54,0.00,,---,0.00,VWS V14.01,2013-05-06 19:00:00,
2013-05-06 12:06:00,56.8,40.4,30.05,WNW,303,8.1,8.1,54,0.00,,---,0.00,VWS V14.01,2013-05-06 19:06:00,
2013-05-06 12:11:00,57.2,40.0,30.05,WNW,288,6.3,8.3,52,0.00,,---,0.00,VWS V14.01,2013-05-06 19:11:00,
2013-05-06 12:17:00,58.3,41.0,30.05,WSW,256,6.3,8.7,52,0.00,,---,0.00,VWS V14.01,2013-05-06 19:17:00,
2013-05-06 12:23:00,59.0,41.7,30.05,NW,307,8.3,8.3,52,0.00,,---,0.00,VWS V14.01,2013-05-06 19:23:00,
2013-05-06 12:28:00,56.8,39.7,30.05,NW,320,8.7,10.5,52,0.00,,---,0.00,VWS V14.01,2013-05-06 19:28:00,
2013-05-06 12:34:00,57.2,40.0,30.05,NW,311,7.6,8.7,52,0.00,,---,0.00,VWS V14.01,2013-05-06 19:34:00,
2013-05-06 12:39:00,56.5,39.3,30.05,NW,305,5.8,8.3,52,0.00,,---,0.00,VWS V14.01,2013-05-06 19:39:00,
2013-05-06 12:44:00,55.9,38.8,30.05,WNW,303,7.2,11.0,52,0.00,,---,0.00,VWS V14.01,2013-05-06 19:44:00,
2013-05-06 12:50:00,55.6,39.2,30.05,WSW,258,15.0,15.0,54,0.00,,---,0.00,VWS V14.01,2013-05-06 19:50:00,
2013-05-06 12:56:00,55.4,39.0,30.05,WSW,242,15.0,15.0,54,0.00,,---,0.00,VWS V14.01,2013-05-06 19:56:00,
2013-05-06 13:01:00,54.7,39.1,30.05,West,261,13.2,15.9,56,0.00,,---,0.00,VWS V14.01,2013-05-06 20:01:00,
2013-05-06 13:06:00,54.7,39.8,30.05,West,262,10.1,12.8,57,0.00,,---,0.00,VWS V14.01,2013-05-06 20:06:00,
2013-05-06 13:13:00,54.1,39.3,30.05,West,264,13.2,13.2,57,0.00,,---,0.00,VWS V14.01,2013-05-06 20:13:00,
2013-05-06 13:18:00,53.6,39.4,30.05,WSW,248,9.6,12.3,58,0.00,,---,0.00,VWS V14.01,2013-05-06 20:18:00,
2013-05-06 13:24:00,53.6,40.1,30.05,West,266,9.6,11.9,60,0.00,,---,0.00,VWS V14.01,2013-05-06 20:24:00,
2013-05-06 13:29:00,53.8,40.2,30.05,West,260,7.6,8.3,60,0.00,,---,0.00,VWS V14.01,2013-05-06 20:29:00,
2013-05-06 13:34:00,54.1,41.2,30.05,WSW,241,6.3,8.3,62,0.00,,---,0.00,VWS V14.01,2013-05-06 20:34:00,
2013-05-06 13:39:00,54.3,41.4,30.05,West,263,6.3,11.0,62,0.00,,---,0.00,VWS V14.01,2013-05-06 20:39:00,
2013-05-06 13:45:00,54.1,41.8,30.05,West,275,5.4,6.3,63,0.00,,---,0.00,VWS V14.01,2013-05-06 20:45:00,
2013-05-06 13:50:00,53.8,41.5,30.05,WSW,258,8.3,11.0,63,0.00,,---,0.00,VWS V14.01,2013-05-06 20:50:00,
2013-05-06 13:56:00,54.0,41.7,30.05,West,281,7.6,8.1,63,0.00,,---,0.00,VWS V14.01,2013-05-06 20:56:00,
2013-05-06 14:01:00,53.8,42.1,30.05,West,274,5.4,7.2,64,0.00,,---,0.00,VWS V14.01,2013-05-06 21:01:00,
2013-05-06 14:07:00,54.0,42.9,30.05,West,272,5.4,7.2,66,0.00,,---,0.00,VWS V14.01,2013-05-06 21:07:00,
2013-05-06 14:13:00,53.4,42.4,30.05,West,270,8.7,8.7,66,0.00,,---,0.00,VWS V14.01,2013-05-06 21:13:00,
2013-05-06 14:19:00,53.2,42.8,30.05,WSW,258,5.4,6.3,68,0.00,,---,0.00,VWS V14.01,2013-05-06 21:19:00,
2013-05-06 14:24:00,53.4,43.5,30.05,West,260,7.6,11.0,69,0.00,,---,0.00,VWS V14.01,2013-05-06 21:24:00,
2013-05-06 14:30:00,53.6,43.7,30.05,West,270,10.1,10.1,69,0.00,,---,0.00,VWS V14.01,2013-05-06 21:30:00,
2013-05-06 14:36:00,53.8,43.9,30.05,WSW,245,10.5,13.2,69,0.00,,---,0.00,VWS V14.01,2013-05-06 21:36:00,
2013-05-06 14:41:00,54.1,44.2,30.05,SW,235,7.6,8.7,69,0.00,,---,0.00,VWS V14.01,2013-05-06 21:41:00,
2013-05-06 14:47:00,54.0,44.0,30.05,West,268,8.7,13.2,69,0.00,,---,0.00,VWS V14.01,2013-05-06 21:47:00,
2013-05-06 14:52:00,53.8,43.9,30.05,SW,231,8.3,9.6,69,0.00,,---,0.00,VWS V14.01,2013-05-06 21:52:00,
2013-05-06 14:57:00,54.0,44.0,30.05,WSW,237,13.2,13.2,69,0.00,,---,0.00,VWS V14.01,2013-05-06 21:57:00,
2013-05-06 15:03:00,53.4,44.1,30.05,West,267,12.8,15.4,70,0.00,,---,0.00,VWS V14.01,2013-05-06 22:03:00,
2013-05-06 15:08:00,53.1,43.7,30.05,West,270,17.0,19.7,70,0.00,,---,0.00,VWS V14.01,2013-05-06 22:08:00,
2013-05-06 15:13:00,52.9,44.1,30.05,West,274,15.9,15.9,72,0.00,,---,0.00,VWS V14.01,2013-05-06 22:13:00,
2013-05-06 15:19:00,53.2,45.0,30.05,WNW,300,10.5,14.5,74,0.00,,---,0.00,VWS V14.01,2013-05-06 22:19:00,
2013-05-06 15:25:00,51.8,43.1,30.05,West,268,17.4,17.4,72,0.00,,---,0.00,VWS V14.01,2013-05-06 22:25:00,
2013-05-06 15:30:00,51.4,43.3,30.05,West,259,19.7,22.4,74,0.00,,---,0.00,VWS V14.01,2013-05-06 22:30:00,
2013-05-06 15:35:00,50.9,42.7,30.05,WSW,254,10.5,17.4,74,0.00,,---,0.00,VWS V14.01,2013-05-06 22:35:00,
2013-05-06 15:41:00,50.9,42.7,30.05,WSW,242,12.8,15.9,74,0.00,,---,0.00,VWS V14.01,2013-05-06 22:41:00,
2013-05-06 15:46:00,51.4,43.3,30.05,WSW,239,12.8,12.8,74,0.00,,---,0.00,VWS V14.01,2013-05-06 22:46:00,
2013-05-06 15:52:00,51.6,43.4,30.05,WSW,248,15.0,15.4,74,0.00,,---,0.00,VWS V14.01,2013-05-06 22:52:00,
2013-05-06 15:57:00,51.4,42.7,30.05,SW,226,12.3,14.1,72,0.00,,---,0.00,VWS V14.01,2013-05-06 22:57:00,
2013-05-06 16:03:00,52.2,42.9,30.05,SW,236,10.5,14.1,70,0.00,,---,0.00,VWS V14.01,2013-05-06 23:03:00,
2013-05-06 16:08:00,52.3,42.5,30.05,West,261,11.9,12.8,69,0.00,,---,0.00,VWS V14.01,2013-05-06 23:08:00,
2013-05-06 16:14:00,52.9,42.4,30.05,West,259,11.0,11.0,68,0.00,,---,0.00,VWS V14.01,2013-05-06 23:14:00,
2013-05-06 16:19:00,53.6,41.9,30.05,WSW,239,10.1,12.8,64,0.00,,---,0.00,VWS V14.01,2013-05-06 23:19:00,
2013-05-06 16:25:00,54.0,41.7,30.05,WSW,245,11.0,11.0,63,0.00,,---,0.00,VWS V14.01,2013-05-06 23:25:00,
2013-05-06 16:30:00,53.8,40.9,30.05,WSW,247,10.1,14.5,62,0.00,,---,0.00,VWS V14.01,2013-05-06 23:30:00,
2013-05-06 16:36:00,53.2,40.4,30.05,WSW,237,12.8,17.4,62,0.00,,---,0.00,VWS V14.01,2013-05-06 23:36:00,
2013-05-06 16:42:00,52.3,38.9,30.05,WSW,245,8.7,15.0,60,0.00,,---,0.00,VWS V14.01,2013-05-06 23:42:00,
2013-05-06 16:48:00,52.0,38.5,30.05,WSW,247,11.0,12.3,60,0.00,,---,0.00,VWS V14.01,2013-05-06 23:48:00,
2013-05-06 16:53:00,51.8,39.0,30.05,WSW,243,8.3,8.3,62,0.00,,---,0.00,VWS V14.01,2013-05-06 23:53:00,
2013-05-06 16:58:00,52.2,39.3,30.05,WSW,247,7.6,8.3,62,0.00,,---,0.00,VWS V14.01,2013-05-06 23:58:00,
2013-05-06 17:03:00,52.5,39.7,30.05,West,266,8.1,8.3,62,0.00,,---,0.00,VWS V14.01,2013-05-07 00:03:00,
2013-05-06 17:09:00,52.2,39.3,30.05,WNW,288,5.8,5.8,62,0.00,,---,0.00,VWS V14.01,2013-05-07 00:09:00,
2013-05-06 17:15:00,52.0,39.8,30.05,West,261,6.3,6.7,63,0.00,,---,0.00,VWS V14.01,2013-05-07 00:15:00,
2013-05-06 17:20:00,52.2,40.0,30.05,West,269,9.6,9.6,63,0.00,,---,0.00,VWS V14.01,2013-05-07 00:20:00,
2013-05-06 17:26:00,52.5,40.3,30.05,WNW,284,4.0,8.1,63,0.00,,---,0.00,VWS V14.01,2013-05-07 00:26:00,
2013-05-06 17:31:00,52.3,39.5,30.05,WNW,297,7.6,8.7,62,0.00,,---,0.00,VWS V14.01,2013-05-07 00:31:00,
2013-05-06 17:36:00,52.3,39.5,30.05,SW,225,8.1,8.7,62,0.00,,---,0.00,VWS V14.01,2013-05-07 00:36:00,
2013-05-06 17:42:00,52.5,39.7,30.05,West,266,7.6,8.3,62,0.00,,---,0.00,VWS V14.01,2013-05-07 00:42:00,
2013-05-06 17:47:00,52.3,39.5,30.05,West,270,8.7,8.7,62,0.00,,---,0.00,VWS V14.01,2013-05-07 00:47:00,
2013-05-06 17:53:00,52.0,39.2,30.05,WNW,294,5.8,6.3,62,0.00,,---,0.00,VWS V14.01,2013-05-07 00:53:00,
2013-05-06 17:58:00,51.8,39.0,30.05,WNW,292,7.6,8.1,62,0.00,,---,0.00,VWS V14.01,2013-05-07 00:58:00,
2013-05-06 18:04:00,51.6,38.8,30.05,WSW,253,8.7,8.7,62,0.00,,---,0.00,VWS V14.01,2013-05-07 01:04:00,
2013-05-06 18:10:00,51.6,39.5,30.05,WNW,285,8.3,9.6,63,0.00,,---,0.00,VWS V14.01,2013-05-07 01:10:00,
2013-05-06 18:16:00,51.6,40.0,30.05,West,269,5.8,7.6,64,0.00,,---,0.00,VWS V14.01,2013-05-07 01:16:00,
2013-05-06 18:21:00,51.4,39.3,30.05,SW,231,5.8,7.6,63,0.00,,---,0.00,VWS V14.01,2013-05-07 01:21:00,
2013-05-06 18:27:00,51.4,39.9,30.05,West,271,10.5,11.4,64,0.00,,---,0.00,VWS V14.01,2013-05-07 01:27:00,
2013-05-06 18:33:00,51.3,39.7,30.05,NW,317,10.1,11.0,64,0.00,,---,0.00,VWS V14.01,2013-05-07 01:33:00,
2013-05-06 18:38:00,50.9,40.0,30.05,West,274,10.1,11.4,66,0.00,,---,0.00,VWS V14.01,2013-05-07 01:38:00,
2013-05-06 18:44:00,50.5,39.6,30.05,WNW,286,8.1,8.3,66,0.00,,---,0.00,VWS V14.01,2013-05-07 01:44:00,
2013-05-06 18:50:00,50.4,40.0,30.05,West,274,6.3,10.1,68,0.00,,---,0.00,VWS V14.01,2013-05-07 01:50:00,
2013-05-06 18:55:00,50.4,40.0,30.05,WSW,257,8.1,10.1,68,0.00,,---,0.00,VWS V14.01,2013-05-07 01:55:00,
2013-05-06 19:01:00,50.0,40.2,30.05,West,273,14.5,14.5,69,0.00,,---,0.00,VWS V14.01,2013-05-07 02:01:00,
2013-05-06 19:06:00,49.8,40.1,30.05,West,276,11.0,12.3,69,0.00,,---,0.00,VWS V14.01,2013-05-07 02:06:00,
2013-05-06 19:12:00,49.6,39.9,30.05,West,264,11.4,11.4,69,0.00,,---,0.00,VWS V14.01,2013-05-07 02:12:00,
2013-05-06 19:17:00,49.5,39.7,30.05,NW,306,5.8,10.5,69,0.00,,---,0.00,VWS V14.01,2013-05-07 02:17:00,
2013-05-06 19:23:00,49.3,39.5,30.05,WNW,293,8.3,11.0,69,0.00,,---,0.00,VWS V14.01,2013-05-07 02:23:00,
2013-05-06 19:28:00,49.3,39.5,30.05,WNW,285,8.7,10.5,69,0.00,,---,0.00,VWS V14.01,2013-05-07 02:28:00,
2013-05-06 19:34:00,49.1,39.4,30.05,WNW,290,7.6,10.1,69,0.00,,---,0.00,VWS V14.01,2013-05-07 02:34:00,
2013-05-06 19:39:00,48.9,39.2,30.05,West,270,8.1,8.7,69,0.00,,---,0.00,VWS V14.01,2013-05-07 02:39:00,
2013-05-06 19:44:00,48.9,39.8,30.05,WNW,303,6.3,7.6,70,0.00,,---,0.00,VWS V14.01,2013-05-07 02:44:00,
2013-05-06 19:49:00,48.9,39.8,30.05,West,274,10.1,10.1,70,0.00,,---,0.00,VWS V14.01,2013-05-07 02:49:00,
2013-05-06 19:54:00,48.7,39.6,30.05,West,259,8.3,8.3,70,0.00,,---,0.00,VWS V14.01,2013-05-07 02:54:00,
2013-05-06 19:59:00,48.7,39.6,30.05,West,269,10.5,10.5,70,0.00,,---,0.00,VWS V14.01,2013-05-07 02:59:00,
2013-05-06 20:05:00,48.6,39.4,30.05,West,265,10.5,11.0,70,0.00,,---,0.00,VWS V14.01,2013-05-07 03:05:00,
2013-05-06 20:10:00,48.6,39.4,30.05,WNW,294,10.5,12.8,70,0.00,,---,0.00,VWS V14.01,2013-05-07 03:10:00,
2013-05-06 20:16:00,48.4,39.8,30.05,WSW,257,10.1,10.5,72,0.00,,---,0.00,VWS V14.01,2013-05-07 03:16:00,
2013-05-06 20:21:00,48.4,39.2,30.05,West,263,10.5,10.5,70,0.00,,---,0.00,VWS V14.01,2013-05-07 03:21:00,
2013-05-06 20:27:00,48.2,39.1,30.05,WSW,258,10.1,10.5,70,0.00,,---,0.00,VWS V14.01,2013-05-07 03:27:00,
2013-05-06 20:33:00,48.4,39.8,30.05,West,274,7.6,9.2,72,0.00,,---,0.00,VWS V14.01,2013-05-07 03:33:00,
2013-05-06 20:38:00,48.4,39.8,30.05,West,261,8.3,10.1,72,0.00,,---,0.00,VWS V14.01,2013-05-07 03:38:00,
2013-05-06 20:44:00,48.2,39.6,30.05,West,277,7.6,7.6,72,0.00,,---,0.00,VWS V14.01,2013-05-07 03:44:00,
2013-05-06 20:50:00,48.2,39.6,30.05,West,260,8.7,9.6,72,0.00,,---,0.00,VWS V14.01,2013-05-07 03:50:00,
2013-05-06 20:55:00,48.2,39.6,30.05,WSW,258,8.3,8.7,72,0.00,,---,0.00,VWS V14.01,2013-05-07 03:55:00,
2013-05-06 21:01:00,48.2,40.1,30.05,West,275,8.3,8.7,74,0.00,,---,0.00,VWS V14.01,2013-05-07 04:01:00,
2013-05-06 21:02:00,48.2,40.1,30.05,West,263,8.7,10.1,74,0.00,,---,0.00,VWS V14.01,2013-05-07 04:02:00,
2013-05-06 21:06:00,48.0,40.0,30.05,West,268,8.1,8.7,74,0.00,,---,0.00,VWS V14.01,2013-05-07 04:06:00,
2013-05-06 21:12:00,48.0,40.0,30.08,West,264,8.1,8.3,74,0.00,,---,0.00,VWS V14.01,2013-05-07 04:12:00,
2013-05-06 21:14:00,47.8,39.8,30.08,West,281,6.3,10.1,74,0.00,,---,0.00,VWS V14.01,2013-05-07 04:14:00,
2013-05-06 21:16:00,47.8,39.8,30.08,West,260,8.3,11.0,74,0.00,,---,0.00,VWS V14.01,2013-05-07 04:16:00,
2013-05-06 21:21:00,47.8,39.8,30.08,West,259,7.6,7.6,74,0.00,,---,0.00,VWS V14.01,2013-05-07 04:21:00,
2013-05-06 21:27:00,47.7,38.5,30.08,WSW,250,8.7,10.5,70,0.00,,---,0.00,VWS V14.01,2013-05-07 04:27:00,
2013-05-06 21:33:00,47.7,38.0,30.08,West,265,8.1,8.3,69,0.00,,---,0.00,VWS V14.01,2013-05-07 04:33:00,
2013-05-06 21:39:00,47.7,37.4,30.08,West,261,8.7,11.0,68,0.00,,---,0.00,VWS V14.01,2013-05-07 04:39:00,
2013-05-06 21:45:00,47.7,36.3,30.08,West,260,8.1,8.3,64,0.00,,---,0.00,VWS V14.01,2013-05-07 04:45:00,
2013-05-06 21:51:00,47.7,35.7,30.08,West,263,5.4,6.3,63,0.00,,---,0.00,VWS V14.01,2013-05-07 04:51:00,
2013-05-06 21:56:00,47.7,35.1,30.08,WSW,240,8.1,10.5,62,0.00,,---,0.00,VWS V14.01,2013-05-07 04:56:00,
2013-05-06 22:02:00,47.7,35.1,30.08,SW,220,10.5,10.5,62,0.00,,---,0.00,VWS V14.01,2013-05-07 05:02:00,
2013-05-06 22:07:00,47.7,34.5,30.08,WSW,237,10.1,12.3,60,0.00,,---,0.00,VWS V14.01,2013-05-07 05:07:00,
2013-05-06 22:13:00,47.5,33.7,30.08,WSW,246,8.7,10.1,58,0.00,,---,0.00,VWS V14.01,2013-05-07 05:13:00,
2013-05-06 22:19:00,47.7,33.8,30.08,SW,233,11.0,11.0,58,0.00,,---,0.00,VWS V14.01,2013-05-07 05:19:00,
2013-05-06 22:24:00,47.7,33.2,30.08,SW,234,5.8,8.1,57,0.00,,---,0.00,VWS V14.01,2013-05-07 05:24:00,
2013-05-06 22:29:00,47.7,33.2,30.08,WSW,241,6.3,8.3,57,0.00,,---,0.00,VWS V14.01,2013-05-07 05:29:00,
2013-05-06 22:35:00,47.7,33.2,30.08,WSW,256,8.7,8.7,57,0.00,,---,0.00,VWS V14.01,2013-05-07 05:35:00,
2013-05-06 22:41:00,47.7,33.2,30.08,WSW,251,8.1,8.7,57,0.00,,---,0.00,VWS V14.01,2013-05-07 05:41:00,
2013-05-06 22:46:00,47.5,33.0,30.08,WSW,253,8.1,8.1,57,0.00,,---,0.00,VWS V14.01,2013-05-07 05:46:00,
2013-05-06 22:51:00,47.3,32.8,30.08,WSW,247,8.1,8.7,57,0.00,,---,0.00,VWS V14.01,2013-05-07 05:51:00,
2013-05-06 22:57:00,47.1,32.7,30.08,SW,227,5.8,8.3,57,0.00,,---,0.00,VWS V14.01,2013-05-07 05:57:00,
2013-05-06 23:03:00,47.1,32.7,30.08,WSW,247,5.4,8.7,57,0.00,,---,0.00,VWS V14.01,2013-05-07 06:03:00,
2013-05-06 23:09:00,46.9,32.5,30.08,WSW,247,4.9,5.4,57,0.00,,---,0.00,VWS V14.01,2013-05-07 06:09:00,
2013-05-06 23:14:00,47.1,32.7,30.08,West,260,5.4,5.4,57,0.00,,---,0.00,VWS V14.01,2013-05-07 06:14:00,
2013-05-06 23:20:00,46.9,33.2,30.08,WNW,283,4.0,4.5,58,0.00,,---,0.00,VWS V14.01,2013-05-07 06:20:00,
2013-05-06 23:25:00,46.9,33.2,30.08,NW,304,3.6,4.0,58,0.00,,---,0.00,VWS V14.01,2013-05-07 06:25:00,
2013-05-06 23:30:00,46.8,33.6,30.08,NW,312,2.7,3.6,60,0.00,,---,0.00,VWS V14.01,2013-05-07 06:30:00,
2013-05-06 23:35:00,46.8,33.6,30.08,NW,312,0.0,0.0,60,0.00,,---,0.00,VWS V14.01,2013-05-07 06:35:00,
2013-05-06 23:41:00,46.8,33.6,30.08,West,265,0.0,0.0,60,0.00,,---,0.00,VWS V14.01,2013-05-07 06:41:00,
2013-05-06 23:47:00,46.9,34.4,30.08,West,270,4.9,4.9,62,0.00,,---,0.00,VWS V14.01,2013-05-07 06:47:00,
2013-05-06 23:52:00,46.9,34.4,30.08,West,277,4.9,6.3,62,0.00,,---,0.00,VWS V14.01,2013-05-07 06:52:00,
2013-05-06 23:58:00,46.9,34.4,30.08,NW,305,6.3,8.1,62,0.00,,---,0.00,VWS V14.01,2013-05-07 06:58:00,